Time;durP1;ratioP1;P1;durP2;ratioP2;P2;SDS_P1;SDS_P2;PMS_P1;PMS_P2;Temp;Humidity;BMP_temperature;BMP_pressure;BME280_temperature;BME280_humidity;BME280_pressure;Samples;Min_cycle;Max_cycle;Signal;HPM_P1;HPM_P2
2024/01/05 00:00:38;;;;;;;;;;;-0.60;100.00;;;;;;6235166;23;19919;-68
2024/01/05 00:03:05;;;;;;;;;;;-0.60;100.00;;;;;;6234839;23;19923;-68
2024/01/05 00:06:03;;;;;;;;;;;-0.60;100.00;;;;;;6235882;22;20026;-68
2024/01/05 00:08:30;;;;;;;;;;;-0.60;100.00;;;;;;6235053;23;19923;-68
2024/01/05 00:10:57;;;;;;;;;;;-0.70;100.00;;;;;;6234564;23;19919;-68
2024/01/05 00:13:23;;;;;;;;;;;-0.60;100.00;;;;;;6207778;23;19973;-68
2024/01/05 00:15:50;;;;;;;;;;;-0.70;100.00;;;;;;6235549;23;19936;-68
2024/01/05 00:18:17;;;;;;;;;;;-0.70;100.00;;;;;;6235303;23;19950;-68
2024/01/05 00:20:44;;;;;;;;;;;-0.60;100.00;;;;;;6234548;23;20498;-68
2024/01/05 00:23:10;;;;;;;;;;;-0.70;100.00;;;;;;6234914;23;19949;-68
2024/01/05 00:25:37;;;;;;;;;;;-0.70;100.00;;;;;;6234839;23;19996;-68
2024/01/05 00:28:04;;;;;;;;;;;-0.70;100.00;;;;;;6234846;23;19919;-68
2024/01/05 00:30:33;;;;;;;;;;;-0.70;100.00;;;;;;6235088;22;19923;-68
2024/01/05 00:33:00;;;;;;;;;;;-0.70;100.00;;;;;;6235705;22;19916;-68
2024/01/05 00:35:27;;;;;;;;;;;-0.70;100.00;;;;;;6237202;22;19919;-71
2024/01/05 00:37:54;;;;;;;;;;;-0.80;100.00;;;;;;6235224;22;19919;-71
2024/01/05 00:40:20;;;;;;;;;;;-0.70;100.00;;;;;;6235315;23;19923;-71
2024/01/05 00:42:47;;;;;;;;;;;-0.70;100.00;;;;;;6208240;23;19927;-71
2024/01/05 00:45:14;;;;;;;;;;;-0.70;100.00;;;;;;6234695;23;19955;-71
2024/01/05 00:47:41;;;;;;;;;;;-0.70;100.00;;;;;;6235342;23;19943;-71
2024/01/05 00:50:08;;;;;;;;;;;-0.70;100.00;;;;;;6234845;23;20008;-71
2024/01/05 00:52:35;;;;;;;;;;;-0.70;100.00;;;;;;6207047;23;19919;-71
2024/01/05 00:55:01;;;;;;;;;;;-0.70;100.00;;;;;;6207842;23;19919;-71
2024/01/05 00:57:29;;;;;;;;;;;-0.70;100.00;;;;;;6234119;23;19920;-71
2024/01/05 00:59:56;;;;;;;;;;;-0.70;100.00;;;;;;6208151;23;19919;-70
2024/01/05 01:02:22;;;;;;;;;;;-0.80;100.00;;;;;;6234667;23;19920;-70
2024/01/05 01:04:49;;;;;;;;;;;-0.70;100.00;;;;;;6232489;23;19927;-71
2024/01/05 01:07:16;;;;;;;;;;;-0.70;100.00;;;;;;6234337;23;19930;-71
2024/01/05 01:09:43;;;;;;;;;;;-0.70;100.00;;;;;;6234771;23;19919;-71
2024/01/05 01:12:09;;;;;;;;;;;-0.70;100.00;;;;;;6235841;23;19919;-71
2024/01/05 01:14:36;;;;;;;;;;;-0.70;100.00;;;;;;6236485;23;19923;-71
2024/01/05 01:17:03;;;;;;;;;;;-0.70;100.00;;;;;;6236439;23;19927;-71
2024/01/05 01:19:31;;;;;;;;;;;-0.70;100.00;;;;;;6209945;23;20453;-71
2024/01/05 01:21:58;;;;;;;;;;;-0.70;100.00;;;;;;6210552;23;19923;-71
2024/01/05 01:24:53;;;;;;;;;;;-0.70;100.00;;;;;;6236430;23;19930;-70
2024/01/05 01:27:19;;;;;;;;;;;-0.80;100.00;;;;;;6236271;23;19919;-68
2024/01/05 01:29:47;;;;;;;;;;;-0.70;100.00;;;;;;6236841;23;19930;-68
2024/01/05 01:32:14;;;;;;;;;;;-0.80;100.00;;;;;;6235858;23;19919;-68
2024/01/05 01:34:41;;;;;;;;;;;-0.80;100.00;;;;;;6236321;23;19919;-68
2024/01/05 01:37:07;;;;;;;;;;;-0.80;100.00;;;;;;6210615;23;19919;-68
2024/01/05 01:39:34;;;;;;;;;;;-0.80;100.00;;;;;;6209111;23;19919;-68
2024/01/05 01:42:01;;;;;;;;;;;-0.70;100.00;;;;;;6236778;23;19919;-68
2024/01/05 01:44:28;;;;;;;;;;;-0.80;100.00;;;;;;6209831;23;19926;-68
2024/01/05 01:46:56;;;;;;;;;;;-0.80;100.00;;;;;;6236338;23;19916;-68
2024/01/05 01:49:23;;;;;;;;;;;-0.70;100.00;;;;;;6209426;23;20280;-68
2024/01/05 01:51:51;;;;;;;;;;;-0.80;100.00;;;;;;6236497;23;19919;-68
2024/01/05 01:54:18;;;;;;;;;;;-0.80;100.00;;;;;;6209604;23;19973;-68
2024/01/05 01:56:45;;;;;;;;;;;-0.80;100.00;;;;;;6236343;23;19923;-68
2024/01/05 01:59:12;;;;;;;;;;;-0.80;100.00;;;;;;6238221;23;19919;-70
2024/01/05 02:01:41;;;;;;;;;;;-0.90;100.00;;;;;;6210141;23;19920;-70
2024/01/05 02:04:13;;;;;;;;;;;-0.90;100.00;;;;;;6209344;23;19919;-70
2024/01/05 02:06:44;;;;;;;;;;;-0.90;100.00;;;;;;6236545;23;19994;-70
2024/01/05 02:09:12;;;;;;;;;;;-0.90;100.00;;;;;;6236115;23;20284;-70
2024/01/05 02:11:39;;;;;;;;;;;-0.90;100.00;;;;;;6236135;23;19935;-70
2024/01/05 02:14:06;;;;;;;;;;;-0.90;100.00;;;;;;6236471;23;19919;-70
2024/01/05 02:16:33;;;;;;;;;;;-0.90;100.00;;;;;;6236705;23;20578;-70
2024/01/05 02:19:00;;;;;;;;;;;-0.90;100.00;;;;;;6237858;23;19950;-71
2024/01/05 02:21:29;;;;;;;;;;;-0.90;100.00;;;;;;6236538;23;19923;-71
2024/01/05 02:23:56;;;;;;;;;;;-1.00;100.00;;;;;;6209459;23;19931;-71
2024/01/05 02:26:23;;;;;;;;;;;-0.90;100.00;;;;;;6236395;23;20475;-71
2024/01/05 02:28:50;;;;;;;;;;;-0.90;100.00;;;;;;6236176;22;19919;-71
2024/01/05 02:31:16;;;;;;;;;;;-0.90;100.00;;;;;;6209804;23;19923;-71
2024/01/05 02:33:43;;;;;;;;;;;-1.00;100.00;;;;;;6236498;23;19927;-71
2024/01/05 02:36:11;;;;;;;;;;;-1.00;100.00;;;;;;6235274;23;19919;-71
2024/01/05 02:38:37;;;;;;;;;;;-1.00;100.00;;;;;;6209762;23;19924;-71
2024/01/05 02:41:06;;;;;;;;;;;-1.00;100.00;;;;;;6210004;23;19919;-71
2024/01/05 02:43:32;;;;;;;;;;;-1.00;100.00;;;;;;6235626;23;19920;-71
2024/01/05 02:45:59;;;;;;;;;;;-0.90;100.00;;;;;;6209212;23;19919;-71
2024/01/05 02:48:26;;;;;;;;;;;-0.90;100.00;;;;;;6236527;23;19988;-71
2024/01/05 02:50:53;;;;;;;;;;;-0.90;100.00;;;;;;6210164;23;19947;-68
2024/01/05 02:53:20;;;;;;;;;;;-1.00;100.00;;;;;;6235702;23;20129;-68
2024/01/05 02:55:47;;;;;;;;;;;-1.00;100.00;;;;;;6235646;23;19928;-68
2024/01/05 02:58:13;;;;;;;;;;;-0.90;100.00;;;;;;6235656;23;19915;-68
2024/01/05 03:00:40;;;;;;;;;;;-1.00;100.00;;;;;;6235350;23;20312;-68
2024/01/05 03:03:07;;;;;;;;;;;-1.00;100.00;;;;;;6235363;23;19927;-68
2024/01/05 03:05:34;;;;;;;;;;;-1.00;100.00;;;;;;6234859;23;20499;-68
2024/01/05 03:08:02;;;;;;;;;;;-1.00;100.00;;;;;;6208748;23;19954;-69
2024/01/05 03:10:54;;;;;;;;;;;-1.00;100.00;;;;;;6235936;23;19919;-68
2024/01/05 03:13:21;;;;;;;;;;;-1.00;100.00;;;;;;6235524;23;19920;-68
2024/01/05 03:15:48;;;;;;;;;;;-1.00;100.00;;;;;;6208083;23;19920;-68
2024/01/05 03:18:15;;;;;;;;;;;-1.00;100.00;;;;;;6235099;23;19994;-68
2024/01/05 03:20:42;;;;;;;;;;;-1.00;100.00;;;;;;6235855;23;19939;-68
2024/01/05 03:23:08;;;;;;;;;;;-1.00;100.00;;;;;;6235243;23;19981;-68
2024/01/05 03:25:35;;;;;;;;;;;-1.00;100.00;;;;;;6234355;23;19997;-68
2024/01/05 03:28:02;;;;;;;;;;;-1.10;100.00;;;;;;6208884;23;20276;-68
2024/01/05 03:30:29;;;;;;;;;;;-1.00;100.00;;;;;;6234365;23;19942;-68
2024/01/05 03:32:56;;;;;;;;;;;-1.00;100.00;;;;;;6208679;23;19966;-68
2024/01/05 03:35:23;;;;;;;;;;;-1.00;100.00;;;;;;6234995;23;20436;-68
2024/01/05 03:37:49;;;;;;;;;;;-1.10;100.00;;;;;;6235065;23;19923;-68
2024/01/05 03:40:16;;;;;;;;;;;-1.10;100.00;;;;;;6208218;23;19951;-68
2024/01/05 03:42:43;;;;;;;;;;;-1.10;100.00;;;;;;6235543;23;19923;-68
2024/01/05 03:45:10;;;;;;;;;;;-1.10;100.00;;;;;;6209378;23;20291;-68
2024/01/05 03:47:36;;;;;;;;;;;-1.10;100.00;;;;;;6234596;23;20348;-68
2024/01/05 03:50:04;;;;;;;;;;;-1.10;100.00;;;;;;6235595;23;19919;-68
2024/01/05 03:52:30;;;;;;;;;;;-1.10;100.00;;;;;;6234996;23;19920;-68
2024/01/05 03:54:57;;;;;;;;;;;-1.10;100.00;;;;;;6208966;23;20040;-68
2024/01/05 03:57:24;;;;;;;;;;;-1.10;100.00;;;;;;6235673;23;20286;-68
2024/01/05 03:59:51;;;;;;;;;;;-1.10;100.00;;;;;;6235278;23;20026;-68
2024/01/05 04:02:17;;;;;;;;;;;-1.00;100.00;;;;;;6206859;23;19926;-68
2024/01/05 04:04:44;;;;;;;;;;;-1.10;100.00;;;;;;6235106;23;19934;-68
2024/01/05 04:07:12;;;;;;;;;;;-1.10;100.00;;;;;;6235514;23;19919;-68
2024/01/05 04:09:38;;;;;;;;;;;-1.10;100.00;;;;;;6236049;23;20416;-68
2024/01/05 04:12:06;;;;;;;;;;;-1.10;100.00;;;;;;6235399;23;19973;-70
2024/01/05 04:14:34;;;;;;;;;;;-1.10;100.00;;;;;;6235278;23;19997;-68
2024/01/05 04:17:01;;;;;;;;;;;-1.10;100.00;;;;;;6235311;23;19927;-68
2024/01/05 04:19:29;;;;;;;;;;;-1.10;100.00;;;;;;6234440;22;19985;-68
2024/01/05 04:21:56;;;;;;;;;;;-1.10;100.00;;;;;;6208230;23;19920;-68
2024/01/05 04:24:23;;;;;;;;;;;-1.10;100.00;;;;;;6208079;23;19997;-68
2024/01/05 04:26:50;;;;;;;;;;;-1.00;100.00;;;;;;6235233;23;19974;-68
2024/01/05 04:29:17;;;;;;;;;;;-1.00;100.00;;;;;;6234752;23;19923;-68
2024/01/05 04:31:43;;;;;;;;;;;-1.00;100.00;;;;;;6232356;23;20624;-68
2024/01/05 04:34:10;;;;;;;;;;;-1.00;100.00;;;;;;6234955;23;19977;-68
2024/01/05 04:36:37;;;;;;;;;;;-1.00;100.00;;;;;;6234992;23;19926;-68
2024/01/05 04:39:04;;;;;;;;;;;-1.10;100.00;;;;;;6235904;23;19930;-68
2024/01/05 04:41:32;;;;;;;;;;;-1.10;100.00;;;;;;6235494;23;19919;-68
2024/01/05 04:43:58;;;;;;;;;;;-1.10;100.00;;;;;;6234671;23;19977;-68
2024/01/05 04:46:25;;;;;;;;;;;-1.10;100.00;;;;;;6235719;23;19920;-68
2024/01/05 04:48:52;;;;;;;;;;;-1.10;100.00;;;;;;6210883;23;19950;-68
2024/01/05 04:51:19;;;;;;;;;;;-1.00;100.00;;;;;;6236837;23;19923;-68
2024/01/05 04:53:46;;;;;;;;;;;-1.00;100.00;;;;;;6210123;23;19927;-68
2024/01/05 04:56:13;;;;;;;;;;;-1.00;100.00;;;;;;6236295;23;20380;-68
2024/01/05 04:58:40;;;;;;;;;;;-1.10;100.00;;;;;;6236360;23;19927;-68
2024/01/05 05:01:07;;;;;;;;;;;-1.10;100.00;;;;;;6236688;23;19970;-68
2024/01/05 05:03:34;;;;;;;;;;;-1.00;100.00;;;;;;6236672;23;19919;-68
2024/01/05 05:06:01;;;;;;;;;;;-1.10;100.00;;;;;;6210009;23;19926;-68
2024/01/05 05:08:28;;;;;;;;;;;-1.10;100.00;;;;;;6236766;23;19982;-68
2024/01/05 05:10:54;;;;;;;;;;;-1.10;100.00;;;;;;6209572;23;20487;-68
2024/01/05 05:13:21;;;;;;;;;;;-1.10;100.00;;;;;;6210254;23;19973;-69
2024/01/05 05:15:48;;;;;;;;;;;-1.10;100.00;;;;;;6235892;23;20003;-69
2024/01/05 05:18:14;;;;;;;;;;;-1.10;100.00;;;;;;6236400;23;19981;-68
2024/01/05 05:20:41;;;;;;;;;;;-1.10;100.00;;;;;;6237639;23;19920;-69
2024/01/05 05:23:08;;;;;;;;;;;-1.10;100.00;;;;;;6210878;23;20317;-70
2024/01/05 05:29:04;;;;;;;;;;;-1.10;100.00;;;;;;6235634;22;19921;-70
2024/01/05 05:31:31;;;;;;;;;;;-1.20;100.00;;;;;;6236439;22;19923;-70
2024/01/05 05:33:58;;;;;;;;;;;-1.20;100.00;;;;;;6236628;23;19920;-70
2024/01/05 05:36:24;;;;;;;;;;;-1.20;100.00;;;;;;6236553;23;19923;-70
2024/01/05 05:38:51;;;;;;;;;;;-1.20;100.00;;;;;;6236069;23;19924;-70
2024/01/05 05:41:18;;;;;;;;;;;-1.20;100.00;;;;;;6236299;23;19927;-70
2024/01/05 05:43:45;;;;;;;;;;;-1.20;100.00;;;;;;6236506;23;19926;-70
2024/01/05 05:46:12;;;;;;;;;;;-1.20;100.00;;;;;;6236857;23;19954;-70
2024/01/05 05:48:39;;;;;;;;;;;-1.20;100.00;;;;;;6236339;23;20321;-70
2024/01/05 05:51:06;;;;;;;;;;;-1.20;100.00;;;;;;6237545;22;19930;-70
2024/01/05 05:53:34;;;;;;;;;;;-1.20;100.00;;;;;;6237207;23;19919;-70
2024/01/05 05:56:00;;;;;;;;;;;-1.20;100.00;;;;;;6236410;22;19961;-70
2024/01/05 05:58:27;;;;;;;;;;;-1.20;100.00;;;;;;6236548;23;20326;-70
2024/01/05 06:00:54;;;;;;;;;;;-1.20;100.00;;;;;;6236998;23;19973;-70
2024/01/05 06:03:22;;;;;;;;;;;-1.20;100.00;;;;;;6236252;23;19927;-71
2024/01/05 06:05:50;;;;;;;;;;;-1.20;100.00;;;;;;6234722;23;20321;-71
2024/01/05 06:08:16;;;;;;;;;;;-1.20;100.00;;;;;;6236577;23;19919;-70
2024/01/05 06:10:43;;;;;;;;;;;-1.20;100.00;;;;;;6235279;23;19923;-71
2024/01/05 06:13:10;;;;;;;;;;;-1.20;100.00;;;;;;6208332;23;19916;-71
2024/01/05 06:15:37;;;;;;;;;;;-1.20;100.00;;;;;;6235412;23;20577;-72
2024/01/05 06:18:04;;;;;;;;;;;-1.20;100.00;;;;;;6208862;23;20414;-72
2024/01/05 06:20:31;;;;;;;;;;;-1.20;100.00;;;;;;6235559;23;20217;-71
2024/01/05 06:22:58;;;;;;;;;;;-1.20;100.00;;;;;;6236138;23;19923;-71
2024/01/05 06:25:25;;;;;;;;;;;-1.20;100.00;;;;;;6236074;22;19919;-71
2024/01/05 06:27:51;;;;;;;;;;;-1.20;100.00;;;;;;6236046;23;20667;-72
2024/01/05 06:30:18;;;;;;;;;;;-1.20;100.00;;;;;;6236744;23;19919;-71
2024/01/05 06:32:45;;;;;;;;;;;-1.20;100.00;;;;;;6210403;23;20070;-71
2024/01/05 06:35:13;;;;;;;;;;;-1.20;100.00;;;;;;6236134;23;19970;-71
2024/01/05 06:37:40;;;;;;;;;;;-1.20;100.00;;;;;;6235569;23;19923;-71
2024/01/05 06:40:07;;;;;;;;;;;-1.20;100.00;;;;;;6235476;22;19923;-71
2024/01/05 06:42:33;;;;;;;;;;;-1.10;100.00;;;;;;6235561;23;19927;-71
2024/01/05 06:45:00;;;;;;;;;;;-1.10;100.00;;;;;;6235592;23;20237;-71
2024/01/05 06:47:27;;;;;;;;;;;-1.20;100.00;;;;;;6209926;23;19920;-71
2024/01/05 06:49:54;;;;;;;;;;;-1.10;100.00;;;;;;6236627;23;19927;-71
2024/01/05 06:52:22;;;;;;;;;;;-1.20;100.00;;;;;;6209409;23;19923;-71
2024/01/05 06:54:48;;;;;;;;;;;-1.20;100.00;;;;;;6236598;23;19919;-72
2024/01/05 06:57:15;;;;;;;;;;;-1.10;100.00;;;;;;6234655;23;20631;-71
2024/01/05 06:59:42;;;;;;;;;;;-1.10;100.00;;;;;;6235059;23;20039;-71
2024/01/05 07:02:08;;;;;;;;;;;-1.10;100.00;;;;;;6208769;23;19997;-71
2024/01/05 07:04:35;;;;;;;;;;;-1.10;100.00;;;;;;6209219;23;20240;-72
2024/01/05 07:07:02;;;;;;;;;;;-1.10;100.00;;;;;;6236010;23;19951;-72
2024/01/05 07:09:29;;;;;;;;;;;-1.10;100.00;;;;;;6208512;23;20371;-72
2024/01/05 07:11:56;;;;;;;;;;;-1.10;100.00;;;;;;6235934;23;19919;-72
2024/01/05 07:14:22;;;;;;;;;;;-1.10;100.00;;;;;;6208612;23;19923;-72
2024/01/05 07:16:49;;;;;;;;;;;-1.10;100.00;;;;;;6234442;23;20658;-71
2024/01/05 07:19:34;;;;;;;;;;;-1.10;100.00;;;;;;6209075;23;19973;-72
2024/01/05 07:22:01;;;;;;;;;;;-1.10;100.00;;;;;;6208600;23;19926;-68
2024/01/05 07:24:28;;;;;;;;;;;-1.10;100.00;;;;;;6239283;22;19915;-72
2024/01/05 07:26:55;;;;;;;;;;;-1.10;100.00;;;;;;6235304;23;19943;-72
2024/01/05 07:29:21;;;;;;;;;;;-1.10;100.00;;;;;;6235109;23;19947;-72
2024/01/05 07:31:48;;;;;;;;;;;-1.10;100.00;;;;;;6235242;23;20328;-72
2024/01/05 07:34:15;;;;;;;;;;;-1.10;100.00;;;;;;6234058;23;19949;-73
2024/01/05 07:36:42;;;;;;;;;;;-1.10;100.00;;;;;;6234693;23;20007;-72
2024/01/05 07:39:11;;;;;;;;;;;-1.10;100.00;;;;;;6233246;23;19966;-72
2024/01/05 07:41:38;;;;;;;;;;;-1.10;100.00;;;;;;6207167;23;20746;-72
2024/01/05 07:44:05;;;;;;;;;;;-1.10;100.00;;;;;;6209288;23;19995;-72
2024/01/05 07:46:32;;;;;;;;;;;-1.10;100.00;;;;;;6235418;23;19919;-72
2024/01/05 07:48:59;;;;;;;;;;;-1.10;100.00;;;;;;6208226;23;19973;-72
2024/01/05 07:51:26;;;;;;;;;;;-1.10;100.00;;;;;;6235804;23;20315;-72
2024/01/05 07:53:52;;;;;;;;;;;-1.10;100.00;;;;;;6208643;23;20615;-72
2024/01/05 07:56:19;;;;;;;;;;;-1.10;100.00;;;;;;6207833;23;19923;-72
2024/01/05 07:58:46;;;;;;;;;;;-1.10;100.00;;;;;;6209037;23;19915;-72
2024/01/05 08:01:16;;;;;;;;;;;-1.20;100.00;;;;;;6235533;23;19923;-72
2024/01/05 08:03:46;;;;;;;;;;;-1.20;100.00;;;;;;6235877;23;19920;-68
2024/01/05 08:06:13;;;;;;;;;;;-1.20;100.00;;;;;;6220876;23;19919;-72
2024/01/05 08:08:44;;;;;;;;;;;-1.20;100.00;;;;;;6234752;23;19915;-72
2024/01/05 08:11:10;;;;;;;;;;;-1.30;100.00;;;;;;6234899;23;19925;-71
2024/01/05 08:13:37;;;;;;;;;;;-1.40;100.00;;;;;;6207579;23;19923;-71
2024/01/05 08:16:05;;;;;;;;;;;-1.40;100.00;;;;;;6235065;23;19919;-71
2024/01/05 08:18:32;;;;;;;;;;;-1.40;100.00;;;;;;6234389;23;19939;-71
2024/01/05 08:21:00;;;;;;;;;;;-1.50;100.00;;;;;;6234727;23;19920;-71
2024/01/05 08:23:26;;;;;;;;;;;-1.50;100.00;;;;;;6235419;23;19997;-71
2024/01/05 08:25:53;;;;;;;;;;;-1.60;100.00;;;;;;6235180;23;19919;-71
2024/01/05 08:28:20;;;;;;;;;;;-1.60;100.00;;;;;;6234134;23;19954;-71
2024/01/05 08:30:47;;;;;;;;;;;-1.60;100.00;;;;;;6208745;23;19931;-71
2024/01/05 08:33:14;;;;;;;;;;;-1.70;100.00;;;;;;6207864;23;19965;-71
2024/01/05 08:35:41;;;;;;;;;;;-1.70;100.00;;;;;;6233285;23;19915;-71
2024/01/05 08:38:07;;;;;;;;;;;-1.70;100.00;;;;;;6207255;23;19954;-71
2024/01/05 08:40:34;;;;;;;;;;;-1.70;100.00;;;;;;6234074;23;19947;-71
2024/01/05 08:43:02;;;;;;;;;;;-1.70;100.00;;;;;;6207332;23;20002;-71
2024/01/05 08:45:31;;;;;;;;;;;-1.70;100.00;;;;;;6205451;23;19915;-71
2024/01/05 08:47:58;;;;;;;;;;;-1.70;100.00;;;;;;6234305;23;20087;-70
2024/01/05 08:50:25;;;;;;;;;;;-1.70;100.00;;;;;;6233543;23;19923;-70
2024/01/05 08:52:51;;;;;;;;;;;-1.70;100.00;;;;;;6234103;23;19920;-71
2024/01/05 08:55:18;;;;;;;;;;;-1.70;100.00;;;;;;6234245;23;19919;-71
2024/01/05 08:57:46;;;;;;;;;;;-1.70;100.00;;;;;;6233801;23;19966;-71
2024/01/05 09:00:13;;;;;;;;;;;-1.70;100.00;;;;;;6234969;23;19919;-71
2024/01/05 09:02:40;;;;;;;;;;;-1.70;100.00;;;;;;6208582;23;20420;-71
2024/01/05 09:05:07;;;;;;;;;;;-1.70;100.00;;;;;;6235492;22;19919;-71
2024/01/05 09:07:33;;;;;;;;;;;-1.60;100.00;;;;;;6208179;23;20252;-71
2024/01/05 09:10:05;;;;;;;;;;;-1.60;100.00;;;;;;6235119;23;19919;-71
2024/01/05 09:12:32;;;;;;;;;;;-1.50;100.00;;;;;;6208493;23;19919;-71
2024/01/05 09:14:58;;;;;;;;;;;-1.40;100.00;;;;;;6234299;22;19919;-71
2024/01/05 09:17:25;;;;;;;;;;;-1.40;100.00;;;;;;6233575;23;19923;-71
2024/01/05 09:19:52;;;;;;;;;;;-1.40;100.00;;;;;;6209044;23;19951;-70
2024/01/05 09:22:19;;;;;;;;;;;-1.40;100.00;;;;;;6235418;23;19994;-70
2024/01/05 09:24:46;;;;;;;;;;;-1.30;100.00;;;;;;6207816;23;20402;-70
2024/01/05 09:27:13;;;;;;;;;;;-1.30;100.00;;;;;;6207888;23;20301;-70
2024/01/05 09:29:40;;;;;;;;;;;-1.30;100.00;;;;;;6234953;23;20252;-70
2024/01/05 09:32:07;;;;;;;;;;;-1.30;100.00;;;;;;6234550;23;20623;-70
2024/01/05 09:34:33;;;;;;;;;;;-1.30;100.00;;;;;;6236929;22;19919;-70
2024/01/05 09:37:00;;;;;;;;;;;-1.30;100.00;;;;;;6236824;23;19973;-71
2024/01/05 09:39:28;;;;;;;;;;;-1.30;100.00;;;;;;6236502;23;19920;-71
2024/01/05 09:41:55;;;;;;;;;;;-1.30;100.00;;;;;;6236619;23;19970;-71
2024/01/05 09:44:22;;;;;;;;;;;-1.30;100.00;;;;;;6210127;23;19973;-70
2024/01/05 09:46:49;;;;;;;;;;;-1.30;100.00;;;;;;6209700;23;20529;-70
2024/01/05 09:49:16;;;;;;;;;;;-1.30;100.00;;;;;;6236673;23;19919;-70
2024/01/05 09:51:44;;;;;;;;;;;-1.30;100.00;;;;;;6237391;23;19947;-68
2024/01/05 09:54:12;;;;;;;;;;;-1.30;100.00;;;;;;6235226;23;19919;-67
2024/01/05 09:56:40;;;;;;;;;;;-1.30;100.00;;;;;;6235160;23;20010;-68
2024/01/05 09:59:07;;;;;;;;;;;-1.20;100.00;;;;;;6236831;23;19924;-68
2024/01/05 10:01:34;;;;;;;;;;;-1.20;100.00;;;;;;6235801;23;19998;-68
2024/01/05 10:04:04;;;;;;;;;;;-1.10;100.00;;;;;;6208260;23;20349;-68
2024/01/05 10:06:32;;;;;;;;;;;-1.10;100.00;;;;;;6209713;23;19916;-68
2024/01/05 10:08:59;;;;;;;;;;;-1.10;100.00;;;;;;6236635;22;19919;-68
2024/01/05 10:11:30;;;;;;;;;;;-1.00;100.00;;;;;;6235699;23;20305;-72
2024/01/05 10:14:04;;;;;;;;;;;-1.00;100.00;;;;;;6210607;23;19945;-68
2024/01/05 10:16:36;;;;;;;;;;;-1.00;100.00;;;;;;6237393;23;19926;-70
2024/01/05 10:19:24;;;;;;;;;;;-1.00;100.00;;;;;;6209021;23;19969;-67
2024/01/05 10:21:51;;;;;;;;;;;-1.00;100.00;;;;;;6236124;23;19919;-68
2024/01/05 10:24:22;;;;;;;;;;;-1.00;100.00;;;;;;6234732;22;20009;-69
2024/01/05 10:27:09;;;;;;;;;;;-1.10;100.00;;;;;;6234823;23;19919;-69
2024/01/05 10:29:37;;;;;;;;;;;-1.10;100.00;;;;;;6235651;23;19991;-69
2024/01/05 10:32:11;;;;;;;;;;;-1.00;100.00;;;;;;6235812;23;20736;-70
2024/01/05 10:34:45;;;;;;;;;;;-1.00;100.00;;;;;;6236211;23;19926;-69
2024/01/05 10:37:13;;;;;;;;;;;-1.00;100.00;;;;;;6236012;23;20248;-69
2024/01/05 10:39:53;;;;;;;;;;;-1.10;100.00;;;;;;6236486;23;19969;-69
2024/01/05 10:42:21;;;;;;;;;;;-1.20;100.00;;;;;;6209001;23;19916;-69
2024/01/05 10:44:53;;;;;;;;;;;-1.10;100.00;;;;;;6234747;23;19919;-69
2024/01/05 10:47:21;;;;;;;;;;;-1.10;100.00;;;;;;6236567;23;19920;-69
2024/01/05 10:49:51;;;;;;;;;;;-1.10;100.00;;;;;;6209483;23;20570;-70
2024/01/05 10:52:19;;;;;;;;;;;-1.10;100.00;;;;;;6235773;23;19919;-69
2024/01/05 10:54:47;;;;;;;;;;;-1.10;100.00;;;;;;6236583;22;19931;-69
2024/01/05 10:57:15;;;;;;;;;;;-1.00;100.00;;;;;;6236457;23;19920;-70
2024/01/05 10:59:54;;;;;;;;;;;-1.00;100.00;;;;;;6235590;23;19966;-69
2024/01/05 11:02:24;;;;;;;;;;;-1.00;100.00;;;;;;6209309;23;19957;-69
2024/01/05 11:04:59;;;;;;;;;;;-1.00;100.00;;;;;;6236564;23;19977;-69
2024/01/05 11:07:29;;;;;;;;;;;-1.00;100.00;;;;;;6209081;23;20374;-69
2024/01/05 11:10:05;;;;;;;;;;;-1.10;100.00;;;;;;6235954;23;19925;-69
2024/01/05 11:12:38;;;;;;;;;;;-1.00;100.00;;;;;;6236226;23;19920;-69
2024/01/05 11:15:13;;;;;;;;;;;-1.00;100.00;;;;;;6235530;22;19919;-69
2024/01/05 11:17:53;;;;;;;;;;;-0.90;100.00;;;;;;6235575;23;19930;-69
2024/01/05 11:20:39;;;;;;;;;;;-0.90;100.00;;;;;;6236016;23;19943;-69
2024/01/05 11:23:08;;;;;;;;;;;-0.90;100.00;;;;;;6235491;22;19982;-69
2024/01/05 11:25:35;;;;;;;;;;;-0.90;100.00;;;;;;6235231;23;20253;-69
2024/01/05 11:28:02;;;;;;;;;;;-0.80;100.00;;;;;;6236118;23;19919;-78
2024/01/05 11:30:44;;;;;;;;;;;-0.80;100.00;;;;;;6235492;23;19926;-70
2024/01/05 11:33:30;;;;;;;;;;;-0.80;100.00;;;;;;6208466;23;19970;-69
2024/01/05 11:36:06;;;;;;;;;;;-0.70;100.00;;;;;;6210128;23;20006;-68
2024/01/05 11:38:33;;;;;;;;;;;-0.80;100.00;;;;;;6235994;23;19943;-68
2024/01/05 11:41:12;;;;;;;;;;;-0.90;100.00;;;;;;6208700;23;19955;-68
2024/01/05 11:43:39;;;;;;;;;;;-0.90;100.00;;;;;;6235878;23;19919;-69
2024/01/05 11:46:06;;;;;;;;;;;-1.00;100.00;;;;;;6235467;23;19973;-69
2024/01/05 11:48:33;;;;;;;;;;;-1.00;100.00;;;;;;6235080;23;19954;-69
2024/01/05 11:51:07;;;;;;;;;;;-1.00;100.00;;;;;;6235354;23;19977;-69
2024/01/05 11:53:34;;;;;;;;;;;-0.90;100.00;;;;;;6235644;23;19992;-68
2024/01/05 11:56:03;;;;;;;;;;;-1.00;100.00;;;;;;6234414;23;19942;-68
2024/01/05 11:58:35;;;;;;;;;;;-1.00;100.00;;;;;;6208739;23;19947;-69
2024/01/05 12:01:03;;;;;;;;;;;-0.90;100.00;;;;;;6235617;23;19981;-68
2024/01/05 12:03:30;;;;;;;;;;;-0.90;100.00;;;;;;6235041;23;19966;-68
2024/01/05 12:05:58;;;;;;;;;;;-0.90;100.00;;;;;;6208174;23;19923;-69
2024/01/05 12:08:26;;;;;;;;;;;-0.90;100.00;;;;;;6235425;23;19989;-69
2024/01/05 12:10:54;;;;;;;;;;;-0.90;100.00;;;;;;6235138;23;19919;-68
2024/01/05 12:13:26;;;;;;;;;;;-0.90;100.00;;;;;;6208186;23;19919;-68
2024/01/05 12:15:56;;;;;;;;;;;-0.90;100.00;;;;;;6235180;23;20411;-68
2024/01/05 12:18:30;;;;;;;;;;;-0.90;100.00;;;;;;6235582;23;19926;-68
2024/01/05 12:21:05;;;;;;;;;;;-0.90;100.00;;;;;;6234451;23;19919;-68
2024/01/05 12:23:34;;;;;;;;;;;-0.90;100.00;;;;;;6209302;23;19930;-67
2024/01/05 12:26:03;;;;;;;;;;;-0.90;100.00;;;;;;6235123;23;19922;-68
2024/01/05 12:28:30;;;;;;;;;;;-0.90;100.00;;;;;;6235294;23;20003;-69
2024/01/05 12:30:58;;;;;;;;;;;-0.90;100.00;;;;;;6236074;23;19923;-68
2024/01/05 12:33:25;;;;;;;;;;;-0.80;100.00;;;;;;6236050;23;19927;-68
2024/01/05 12:35:52;;;;;;;;;;;-0.80;100.00;;;;;;6233788;23;19923;-68
2024/01/05 12:38:23;;;;;;;;;;;-0.80;100.00;;;;;;6233813;23;19919;-69
2024/01/05 12:40:50;;;;;;;;;;;-0.80;100.00;;;;;;6235277;23;19973;-68
2024/01/05 12:43:17;;;;;;;;;;;-0.70;100.00;;;;;;6234158;23;19919;-70
2024/01/05 12:45:47;;;;;;;;;;;-0.70;100.00;;;;;;6235309;22;19920;-66
2024/01/05 12:48:14;;;;;;;;;;;-0.70;100.00;;;;;;6207022;23;20316;-68
2024/01/05 12:50:42;;;;;;;;;;;-0.70;100.00;;;;;;6208999;23;19930;-68
2024/01/05 12:53:18;;;;;;;;;;;-0.70;100.00;;;;;;6235202;23;19919;-67
2024/01/05 12:55:45;;;;;;;;;;;-0.70;100.00;;;;;;6207123;23;20301;-67
2024/01/05 12:58:12;;;;;;;;;;;-0.70;100.00;;;;;;6235207;23;19919;-69
2024/01/05 13:00:41;;;;;;;;;;;-0.60;100.00;;;;;;6234823;23;19919;-67
2024/01/05 13:03:18;;;;;;;;;;;-0.60;100.00;;;;;;6235413;23;20022;-69
2024/01/05 13:05:45;;;;;;;;;;;-0.60;100.00;;;;;;6235019;23;19919;-69
2024/01/05 13:08:13;;;;;;;;;;;-0.50;100.00;;;;;;6236064;23;19923;-67
2024/01/05 13:10:39;;;;;;;;;;;-0.50;100.00;;;;;;6209495;23;20581;-68
2024/01/05 13:13:06;;;;;;;;;;;-0.50;100.00;;;;;;6236491;23;19965;-68
2024/01/05 13:15:33;;;;;;;;;;;-0.50;100.00;;;;;;6236032;23;20291;-68
2024/01/05 13:18:00;;;;;;;;;;;-0.50;100.00;;;;;;6236998;23;19927;-68
2024/01/05 13:20:27;;;;;;;;;;;-0.50;100.00;;;;;;6236897;23;19978;-67
2024/01/05 13:22:55;;;;;;;;;;;-0.60;100.00;;;;;;6236782;23;19915;-67
2024/01/05 13:25:23;;;;;;;;;;;-0.60;100.00;;;;;;6236744;23;19919;-66
2024/01/05 13:27:50;;;;;;;;;;;-0.60;100.00;;;;;;6237235;23;19930;-66
2024/01/05 13:30:17;;;;;;;;;;;-0.60;100.00;;;;;;6236901;23;19923;-67
2024/01/05 13:32:45;;;;;;;;;;;-0.60;100.00;;;;;;6236219;23;19942;-66
2024/01/05 13:35:12;;;;;;;;;;;-0.60;100.00;;;;;;6236702;23;19927;-67
2024/01/05 13:37:39;;;;;;;;;;;-0.60;100.00;;;;;;6210381;23;19926;-67
2024/01/05 13:40:06;;;;;;;;;;;-0.60;100.00;;;;;;6235986;23;19927;-67
2024/01/05 13:42:33;;;;;;;;;;;-0.60;100.00;;;;;;6235298;23;19972;-67
2024/01/05 13:45:05;;;;;;;;;;;-0.60;100.00;;;;;;6235086;23;20305;-67
2024/01/05 13:47:35;;;;;;;;;;;-0.70;100.00;;;;;;6207681;23;19930;-67
2024/01/05 13:50:02;;;;;;;;;;;-0.70;100.00;;;;;;6235024;23;20436;-67
2024/01/05 13:52:29;;;;;;;;;;;-0.70;100.00;;;;;;6207984;23;19985;-67
2024/01/05 13:54:56;;;;;;;;;;;-0.70;100.00;;;;;;6208415;23;19946;-67
2024/01/05 13:57:23;;;;;;;;;;;-0.70;100.00;;;;;;6208458;23;19927;-70
2024/01/05 13:59:49;;;;;;;;;;;-0.80;100.00;;;;;;6236903;23;19969;-75
2024/01/05 14:02:20;;;;;;;;;;;-0.80;100.00;;;;;;6236555;23;20658;-74
2024/01/05 14:04:47;;;;;;;;;;;-0.80;100.00;;;;;;6209464;23;19929;-66
2024/01/05 14:07:14;;;;;;;;;;;-0.80;100.00;;;;;;6209380;23;20352;-67
2024/01/05 14:09:42;;;;;;;;;;;-0.90;100.00;;;;;;6236424;23;20683;-68
2024/01/05 14:12:09;;;;;;;;;;;-0.90;100.00;;;;;;6235987;23;19993;-67